createdAt,value
2016-04-09T00:00:03.630Z,0
2016-04-09T00:01:03.664Z,0
2016-04-09T00:02:03.682Z,0
2016-04-09T00:03:03.779Z,0
2016-04-09T00:04:03.734Z,0
2016-04-09T00:05:03.753Z,0
2016-04-09T00:06:03.770Z,0
2016-04-09T00:07:03.805Z,0
2016-04-09T00:08:03.823Z,0
2016-04-09T00:09:03.858Z,0
2016-04-09T00:10:03.861Z,0
2016-04-09T00:11:03.863Z,0
2016-04-09T00:12:03.959Z,0
2016-04-09T00:13:03.946Z,0
2016-04-09T00:14:03.964Z,0
2016-04-09T00:15:03.967Z,0
2016-04-09T00:16:04.017Z,0
2016-04-09T00:17:04.019Z,0
2016-04-09T00:18:04.069Z,0
2016-04-09T00:19:04.071Z,0
2016-04-09T00:20:07.793Z,0
2016-04-09T00:21:04.108Z,0
2016-04-09T00:22:04.143Z,0
2016-04-09T00:23:04.177Z,0
2016-04-09T00:24:04.179Z,0
2016-04-09T00:25:04.057Z,0
2016-04-09T00:26:04.199Z,0
2016-04-09T00:27:04.249Z,0
2016-04-09T00:28:04.252Z,0
2016-04-09T00:29:04.286Z,0
2016-04-09T00:30:04.304Z,0
2016-04-09T00:31:04.322Z,0
2016-04-09T00:32:04.340Z,0
2016-04-09T00:33:04.125Z,0
2016-04-09T00:34:04.361Z,0
2016-04-09T00:35:04.411Z,0
2016-04-09T00:36:04.430Z,0
2016-04-09T00:37:04.448Z,0
2016-04-09T00:38:04.467Z,0
2016-04-09T00:39:04.484Z,0
2016-04-09T00:40:04.503Z,0
2016-04-09T00:41:04.521Z,0
2016-04-09T00:42:04.571Z,0
2016-04-09T00:43:04.605Z,0
2016-04-09T00:44:04.608Z,0
2016-04-09T00:45:04.611Z,0
2016-04-09T00:46:04.645Z,0
2016-04-09T00:47:04.647Z,0
2016-04-09T00:48:04.572Z,0
2016-04-09T00:49:04.683Z,0
2016-04-09T00:50:04.718Z,0
2016-04-09T00:51:04.736Z,0
2016-04-09T00:52:04.785Z,0
2016-04-09T00:53:04.772Z,0
2016-04-09T00:54:04.806Z,0
2016-04-09T00:55:04.824Z,0
2016-04-09T00:56:04.843Z,0
2016-04-09T00:57:04.939Z,0
2016-04-09T00:58:04.896Z,0
2016-04-09T00:59:04.913Z,0
2016-04-09T01:00:04.932Z,0
2016-04-09T01:01:04.951Z,0
2016-04-09T01:02:04.984Z,0
2016-04-09T01:03:05.065Z,0
2016-04-09T01:04:05.051Z,0
2016-04-09T01:05:05.039Z,0
2016-04-09T01:06:05.089Z,0
2016-04-09T01:07:05.075Z,0
2016-04-09T01:08:04.797Z,0
2016-04-09T01:09:05.111Z,0
2016-04-09T01:10:05.146Z,0
2016-04-09T01:11:05.164Z,0
2016-04-09T01:12:04.308Z,0
2016-04-09T01:13:05.201Z,0
2016-04-09T01:14:05.220Z,0
2016-04-09T01:15:05.238Z,0
2016-04-09T01:16:05.288Z,0
2016-04-09T01:17:05.290Z,0
2016-04-09T01:18:05.136Z,0
2016-04-09T01:19:05.327Z,0
2016-04-09T01:20:05.344Z,0
2016-04-09T01:21:05.364Z,0
2016-04-09T01:22:05.382Z,0
2016-04-09T01:23:05.416Z,0
2016-04-09T01:24:05.419Z,0
2016-04-09T01:25:05.468Z,0
2016-04-09T01:26:05.471Z,0
2016-04-09T01:27:05.488Z,0
2016-04-09T01:28:05.507Z,0
2016-04-09T01:29:05.541Z,0
2016-04-09T01:30:05.543Z,0
2016-04-09T01:31:05.562Z,0
2016-04-09T01:32:05.611Z,0
2016-04-09T01:33:05.614Z,0
2016-04-09T01:34:08.648Z,0
2016-04-09T01:35:05.651Z,0
2016-04-09T01:36:05.685Z,0
2016-04-09T01:37:05.710Z,0
2016-04-09T01:38:05.712Z,0
2016-04-09T01:39:05.730Z,0
2016-04-09T01:40:05.748Z,0
2016-04-09T01:41:05.782Z,0
2016-04-09T01:42:05.801Z,0
2016-04-09T01:43:05.803Z,0
2016-04-09T01:44:05.837Z,0
2016-04-09T01:45:05.855Z,0
2016-04-09T01:46:05.873Z,0
2016-04-09T01:47:05.908Z,0
2016-04-09T01:48:05.848Z,0
2016-04-09T01:49:05.945Z,0
2016-04-09T01:50:05.979Z,0
2016-04-09T01:51:05.981Z,0
2016-04-09T01:52:06.015Z,0
2016-04-09T01:53:06.017Z,0
2016-04-09T01:54:06.052Z,0
2016-04-09T01:55:06.055Z,0
2016-04-09T01:56:06.088Z,0
2016-04-09T01:57:06.107Z,0
2016-04-09T01:58:06.124Z,0
2016-04-09T01:59:06.158Z,0
2016-04-09T02:00:06.161Z,0
2016-04-09T02:01:06.180Z,0
2016-04-09T02:02:06.199Z,0
2016-04-09T02:03:06.154Z,0
2016-04-09T02:04:06.235Z,0
2016-04-09T02:05:06.268Z,0
2016-04-09T02:06:06.287Z,0
2016-04-09T02:07:06.305Z,0
2016-04-09T02:08:06.323Z,0
2016-04-09T02:09:06.404Z,0
2016-04-09T02:10:06.375Z,0
2016-04-09T02:11:06.394Z,0
2016-04-09T02:12:06.459Z,0
2016-04-09T02:13:06.462Z,0
2016-04-09T02:14:06.448Z,0
2016-04-09T02:15:06.468Z,0
2016-04-09T02:16:06.517Z,0
2016-04-09T02:17:06.504Z,0
2016-04-09T02:18:06.460Z,0
2016-04-09T02:19:06.541Z,0
2016-04-09T02:20:06.575Z,0
2016-04-09T02:21:06.592Z,0
2016-04-09T02:22:06.595Z,0
2016-04-09T02:23:06.630Z,0
2016-04-09T02:24:06.648Z,0
2016-04-09T02:25:06.683Z,0
2016-04-09T02:26:06.716Z,0
2016-04-09T02:27:06.734Z,0
2016-04-09T02:28:06.753Z,0
2016-04-09T02:29:06.021Z,0
2016-04-09T02:30:06.774Z,0
2016-04-09T02:31:06.807Z,0
2016-04-09T02:32:06.794Z,0
2016-04-09T02:33:06.781Z,0
2016-04-09T02:34:06.846Z,0
2016-04-09T02:35:06.880Z,0
2016-04-09T02:36:06.914Z,0
2016-04-09T02:37:06.917Z,0
2016-04-09T02:38:06.920Z,0
2016-04-09T02:39:06.954Z,0
2016-04-09T02:40:06.973Z,0
2016-04-09T02:41:06.991Z,0
2016-04-09T02:42:07.009Z,0
2016-04-09T02:43:07.043Z,0
2016-04-09T02:44:07.045Z,0
2016-04-09T02:45:07.079Z,0
2016-04-09T02:46:07.098Z,0
2016-04-09T02:47:07.116Z,0
2016-04-09T02:48:07.212Z,0
2016-04-09T02:49:07.168Z,0
2016-04-09T02:50:07.171Z,0
2016-04-09T02:51:07.205Z,0
2016-04-09T02:52:07.239Z,0
2016-04-09T02:53:07.226Z,0
2016-04-09T02:54:07.260Z,0
2016-04-09T02:55:07.278Z,0
2016-04-09T02:56:07.296Z,0
2016-04-09T02:57:07.330Z,0
2016-04-09T02:58:07.333Z,0
2016-04-09T02:59:07.351Z,0
2016-04-09T03:00:07.402Z,0
2016-04-09T03:01:07.372Z,0
2016-04-09T03:02:07.407Z,0
2016-04-09T03:03:07.330Z,0
2016-04-09T03:04:07.458Z,0
2016-04-09T03:05:07.461Z,0
2016-04-09T03:06:07.495Z,0
2016-04-09T03:07:07.513Z,0
2016-04-09T03:08:07.532Z,0
2016-04-09T03:09:07.550Z,0
2016-04-09T03:10:07.568Z,0
2016-04-09T03:11:07.587Z,0
2016-04-09T03:12:07.620Z,0
2016-04-09T03:13:07.639Z,0
2016-04-09T03:14:07.845Z,0
2016-04-09T03:15:07.692Z,0
2016-04-09T03:16:07.695Z,0
2016-04-09T03:17:07.712Z,0
2016-04-09T03:18:07.856Z,0
2016-04-09T03:19:07.592Z,0
2016-04-09T03:20:07.767Z,0
2016-04-09T03:21:07.629Z,0
2016-04-09T03:22:07.803Z,0
2016-04-09T03:23:07.822Z,0
2016-04-09T03:24:07.840Z,0
2016-04-09T03:25:07.858Z,0
2016-04-09T03:26:07.877Z,0
2016-04-09T03:27:07.739Z,0
2016-04-09T03:28:07.930Z,0
2016-04-09T03:29:07.963Z,0
2016-04-09T03:30:07.997Z,0
2016-04-09T03:31:07.985Z,0
2016-04-09T03:32:08.002Z,0
2016-04-09T03:33:08.146Z,0
2016-04-09T03:34:08.039Z,0
2016-04-09T03:35:08.057Z,0
2016-04-09T03:36:08.077Z,0
2016-04-09T03:37:07.985Z,0
2016-04-09T03:38:08.113Z,0
2016-04-09T03:39:08.132Z,0
2016-04-09T03:40:08.165Z,0
2016-04-09T03:41:08.183Z,0
2016-04-09T03:42:08.217Z,0
2016-04-09T03:43:08.204Z,0
2016-04-09T03:44:08.238Z,0
2016-04-09T03:45:08.272Z,0
2016-04-09T03:46:08.306Z,0
2016-04-09T03:47:08.323Z,0
2016-04-09T03:48:08.264Z,0
2016-04-09T03:49:08.329Z,0
2016-04-09T03:50:08.364Z,0
2016-04-09T03:51:08.382Z,0
2016-04-09T03:52:08.384Z,0
2016-04-09T03:53:08.434Z,0
2016-04-09T03:54:08.436Z,0
2016-04-09T03:55:08.470Z,0
2016-04-09T03:56:08.458Z,0
2016-04-09T03:57:08.491Z,0
2016-04-09T03:58:08.557Z,0
2016-04-09T03:59:08.527Z,0
2016-04-09T04:00:08.562Z,0
2016-04-09T04:01:07.815Z,0
2016-04-09T04:02:07.833Z,0
2016-04-09T04:03:08.602Z,0
2016-04-09T04:04:08.620Z,0
2016-04-09T04:05:08.638Z,0
2016-04-09T04:06:08.672Z,0
2016-04-09T04:07:08.691Z,0
2016-04-09T04:08:08.724Z,0
2016-04-09T04:09:08.712Z,0
2016-04-09T04:10:08.745Z,0
2016-04-09T04:11:08.763Z,0
2016-04-09T04:12:08.782Z,0
2016-04-09T04:13:08.801Z,0
2016-04-09T04:14:08.819Z,0
2016-04-09T04:15:08.837Z,0
2016-04-09T04:16:08.856Z,0
2016-04-09T04:17:08.873Z,0
2016-04-09T04:18:08.892Z,0
2016-04-09T04:19:08.910Z,0
2016-04-09T04:20:08.944Z,0
2016-04-09T04:21:08.947Z,0
2016-04-09T04:22:08.964Z,0
2016-04-09T04:23:08.983Z,0
2016-04-09T04:24:09.017Z,0
2016-04-09T04:25:09.035Z,0
2016-04-09T04:26:09.039Z,0
2016-04-09T04:27:09.072Z,0
2016-04-09T04:28:09.091Z,0
2016-04-09T04:29:09.109Z,0
2016-04-09T04:30:09.112Z,0
2016-04-09T04:31:09.146Z,0
2016-04-09T04:32:09.164Z,0
2016-04-09T04:33:09.182Z,0
2016-04-09T04:34:09.200Z,0
2016-04-09T04:35:09.218Z,0
2016-04-09T04:36:09.237Z,0
2016-04-09T04:37:09.271Z,0
2016-04-09T04:38:09.273Z,0
2016-04-09T04:39:09.293Z,0
2016-04-09T04:40:09.310Z,0
2016-04-09T04:41:09.329Z,0
2016-04-09T04:42:09.347Z,0
2016-04-09T04:43:09.365Z,0
2016-04-09T04:44:09.384Z,0
2016-04-09T04:45:09.417Z,0
2016-04-09T04:46:09.420Z,0
2016-04-09T04:47:09.439Z,0
2016-04-09T04:48:09.472Z,0
2016-04-09T04:49:09.475Z,0
2016-04-09T04:50:09.509Z,0
2016-04-09T04:51:09.528Z,0
2016-04-09T04:52:09.531Z,0
2016-04-09T04:53:09.564Z,0
2016-04-09T04:54:09.567Z,0
2016-04-09T04:55:09.600Z,0
2016-04-09T04:56:09.619Z,0
2016-04-09T04:57:09.637Z,0
2016-04-09T04:58:09.655Z,0
2016-04-09T04:59:09.689Z,0
2016-04-09T05:00:09.692Z,0
2016-04-09T05:01:09.694Z,0
2016-04-09T05:02:09.730Z,0
2016-04-09T05:03:09.763Z,0
2016-04-09T05:04:09.766Z,0
2016-04-09T05:05:09.800Z,0
2016-04-09T05:06:09.818Z,0
2016-04-09T05:07:09.852Z,0
2016-04-09T05:08:09.838Z,0
2016-04-09T05:09:09.873Z,0
2016-04-09T05:10:09.876Z,0
2016-04-09T05:11:09.909Z,0
2016-04-09T05:12:09.927Z,0
2016-04-09T05:13:09.961Z,0
2016-04-09T05:14:09.964Z,0
2016-04-09T05:15:09.982Z,0
2016-04-09T05:16:09.985Z,0
2016-04-09T05:17:10.020Z,0
2016-04-09T05:18:10.037Z,0
2016-04-09T05:19:10.056Z,0
2016-04-09T05:20:10.073Z,0
2016-04-09T05:21:10.123Z,0
2016-04-09T05:22:10.111Z,0
2016-04-09T05:23:10.129Z,0
2016-04-09T05:24:10.163Z,0
2016-04-09T05:25:10.167Z,0
2016-04-09T05:26:10.184Z,0
2016-04-09T05:27:10.203Z,0
2016-04-09T05:28:10.268Z,5
2016-04-09T05:29:10.239Z,5
2016-04-09T05:30:10.258Z,5
2016-04-09T05:31:10.275Z,5
2016-04-09T05:32:10.294Z,5
2016-04-09T05:33:10.313Z,5
2016-04-09T05:34:10.330Z,5
2016-04-09T05:35:09.614Z,5
2016-04-09T05:36:10.382Z,5
2016-04-09T05:37:10.385Z,5
2016-04-09T05:38:10.419Z,5
2016-04-09T05:39:10.438Z,5
2016-04-09T05:40:09.722Z,5
2016-04-09T05:41:10.474Z,5
2016-04-09T05:42:10.493Z,5
2016-04-09T05:43:10.495Z,5
2016-04-09T05:44:10.545Z,5
2016-04-09T05:45:10.563Z,5
2016-04-09T05:46:10.565Z,5
2016-04-09T05:47:10.584Z,5
2016-04-09T05:48:10.602Z,5
2016-04-09T05:49:10.605Z,5
2016-04-09T05:50:10.639Z,5
2016-04-09T05:51:10.657Z,5
2016-04-09T05:52:10.691Z,5
2016-04-09T05:53:10.694Z,5
2016-04-09T05:54:10.712Z,5
2016-04-09T05:55:10.731Z,5
2016-04-09T05:56:10.749Z,5
2016-04-09T05:57:10.768Z,5
2016-04-09T05:58:10.786Z,5
2016-04-09T05:59:10.804Z,5
2016-04-09T06:00:10.853Z,5
2016-04-09T06:01:10.856Z,5
2016-04-09T06:02:10.875Z,5
2016-04-09T06:03:10.877Z,5
2016-04-09T06:04:10.896Z,5
2016-04-09T06:05:10.929Z,5
2016-04-09T06:06:10.932Z,5
2016-04-09T06:07:10.966Z,5
2016-04-09T06:08:10.828Z,5
2016-04-09T06:09:11.003Z,5
2016-04-09T06:10:11.021Z,5
2016-04-09T06:11:11.040Z,5
2016-04-09T06:12:11.042Z,5
2016-04-09T06:13:11.060Z,5
2016-04-09T06:14:11.110Z,5
2016-04-09T06:15:11.112Z,5
2016-04-09T06:16:11.116Z,5
2016-04-09T06:17:11.149Z,5
2016-04-09T06:18:11.168Z,5
2016-04-09T06:19:14.171Z,5
2016-04-09T06:20:11.204Z,5
2016-04-09T06:21:11.237Z,5
2016-04-09T06:22:11.084Z,5
2016-04-09T06:23:11.259Z,5
2016-04-09T06:24:11.292Z,5
2016-04-09T06:25:11.311Z,5
2016-04-09T06:26:11.331Z,5
2016-04-09T06:27:11.333Z,5
2016-04-09T06:28:11.336Z,5
2016-04-09T06:29:11.384Z,5
2016-04-09T06:30:11.419Z,5
2016-04-09T06:31:11.422Z,5
2016-04-09T06:32:11.408Z,5
2016-04-09T06:33:11.458Z,5
2016-04-09T06:34:11.460Z,5
2016-04-09T06:35:11.480Z,5
2016-04-09T06:36:11.497Z,5
2016-04-09T06:37:11.531Z,5
2016-04-09T06:38:11.534Z,5
2016-04-09T06:39:11.568Z,5
2016-04-09T06:40:11.571Z,5
2016-04-09T06:41:11.604Z,5
2016-04-09T06:42:10.889Z,5
2016-04-09T06:43:11.641Z,5
2016-04-09T06:44:11.660Z,5
2016-04-09T06:45:11.662Z,5
2016-04-09T06:46:11.696Z,5
2016-04-09T06:47:11.714Z,5
2016-04-09T06:48:10.998Z,5
2016-04-09T06:49:11.751Z,5
2016-04-09T06:50:11.816Z,5
2016-04-09T06:51:11.804Z,5
2016-04-09T06:52:11.806Z,5
2016-04-09T06:53:11.824Z,5
2016-04-09T06:54:11.886Z,5
2016-04-09T06:55:11.948Z,5
2016-04-09T06:56:12.027Z,5
2016-04-09T06:57:12.074Z,5
2016-04-09T06:58:12.137Z,5
2016-04-09T06:59:12.172Z,5
2016-04-09T07:00:12.221Z,5
2016-04-09T07:01:12.256Z,5
2016-04-09T07:02:12.274Z,5
2016-04-09T07:03:12.309Z,5
2016-04-09T07:04:12.333Z,5
2016-04-09T07:05:12.373Z,5
2016-04-09T07:06:12.396Z,5
2016-04-09T07:07:12.421Z,5
2016-04-09T07:08:12.476Z,5
2016-04-09T07:09:12.465Z,5
2016-04-09T07:10:12.486Z,5
2016-04-09T07:11:12.506Z,5
2016-04-09T07:12:12.543Z,5
2016-04-09T07:13:12.563Z,5
2016-04-09T07:14:12.597Z,5
2016-04-09T07:15:12.587Z,5
2016-04-09T07:16:12.605Z,5
2016-04-09T07:17:12.641Z,10
2016-04-09T07:18:12.675Z,10
2016-04-09T07:19:12.678Z,10
2016-04-09T07:20:12.697Z,10
2016-04-09T07:21:12.730Z,10
2016-04-09T07:22:12.764Z,10
2016-04-09T07:23:12.766Z,10
2016-04-09T07:24:12.769Z,10
2016-04-09T07:25:12.818Z,10
2016-04-09T07:26:12.805Z,10
2016-04-09T07:27:12.840Z,10
2016-04-09T07:28:12.858Z,10
2016-04-09T07:29:12.861Z,10
2016-04-09T07:30:12.910Z,10
2016-04-09T07:31:12.897Z,10
2016-04-09T07:32:12.931Z,10
2016-04-09T07:33:12.934Z,10
2016-04-09T07:34:12.984Z,10
2016-04-09T07:35:13.048Z,10
2016-04-09T07:36:13.020Z,10
2016-04-09T07:37:13.257Z,10
2016-04-09T07:38:13.103Z,10
2016-04-09T07:39:13.106Z,10
2016-04-09T07:40:13.125Z,10
2016-04-09T07:41:13.112Z,10
2016-04-09T07:42:13.145Z,10
2016-04-09T07:43:13.008Z,10
2016-04-09T07:44:13.167Z,10
2016-04-09T07:45:13.201Z,10
2016-04-09T07:46:13.235Z,10
2016-04-09T07:47:13.315Z,10
2016-04-09T07:48:13.272Z,10
2016-04-09T07:49:13.274Z,10
2016-04-09T07:50:13.308Z,10
2016-04-09T07:51:13.311Z,10
2016-04-09T07:52:13.328Z,10
2016-04-09T07:53:13.363Z,10
2016-04-09T07:54:13.396Z,10
2016-04-09T07:55:13.415Z,10
2016-04-09T07:56:13.511Z,10
2016-04-09T07:57:13.436Z,10
2016-04-09T07:58:13.673Z,10
2016-04-09T07:59:13.504Z,10
2016-04-09T08:00:13.507Z,10
2016-04-09T08:01:13.524Z,10
2016-04-09T08:02:13.543Z,10
2016-04-09T08:03:13.404Z,10
2016-04-09T08:04:13.642Z,10
2016-04-09T08:05:13.613Z,10
2016-04-09T08:06:13.616Z,10
2016-04-09T08:07:13.651Z,10
2016-04-09T08:08:13.684Z,10
2016-04-09T08:09:13.687Z,10
2016-04-09T08:10:13.721Z,10
2016-04-09T08:11:13.724Z,10
2016-04-09T08:12:13.757Z,10
2016-04-09T08:13:13.776Z,10
2016-04-09T08:14:13.795Z,10
2016-04-09T08:15:13.828Z,10
2016-04-09T08:16:13.847Z,10
2016-04-09T08:17:13.693Z,10
2016-04-09T08:18:13.867Z,10
2016-04-09T08:19:13.901Z,10
2016-04-09T08:20:13.920Z,10
2016-04-09T08:21:13.938Z,10
2016-04-09T08:22:13.972Z,10
2016-04-09T08:23:13.975Z,10
2016-04-09T08:24:14.025Z,10
2016-04-09T08:25:14.042Z,10
2016-04-09T08:26:14.045Z,10
2016-04-09T08:27:14.064Z,10
2016-04-09T08:28:14.082Z,10
2016-04-09T08:29:14.225Z,10
2016-04-09T08:30:14.149Z,10
2016-04-09T08:31:14.262Z,10
2016-04-09T08:32:14.171Z,10
2016-04-09T08:33:14.299Z,10
2016-04-09T08:34:14.301Z,10
2016-04-09T08:35:14.335Z,10
2016-04-09T08:36:14.353Z,10
2016-04-09T08:37:14.357Z,10
2016-04-09T08:38:14.374Z,10
2016-04-09T08:39:14.424Z,10
2016-04-09T08:40:14.411Z,10
2016-04-09T08:41:14.429Z,10
2016-04-09T08:42:14.432Z,10
2016-04-09T08:43:14.310Z,10
2016-04-09T08:44:14.437Z,10
2016-04-09T08:45:14.628Z,10
2016-04-09T08:46:14.474Z,10
2016-04-09T08:47:14.492Z,10
2016-04-09T08:48:14.542Z,10
2016-04-09T08:49:14.670Z,10
2016-04-09T08:50:14.564Z,10
2016-04-09T08:51:14.581Z,10
2016-04-09T08:52:14.615Z,15
2016-04-09T08:53:14.650Z,15
2016-04-09T08:54:14.652Z,15
2016-04-09T08:55:14.686Z,15
2016-04-09T08:56:14.705Z,15
2016-04-09T08:57:14.722Z,15
2016-04-09T08:58:14.741Z,15
2016-04-09T08:59:14.759Z,15
2016-04-09T09:00:14.793Z,15
2016-04-09T09:01:14.810Z,15
2016-04-09T09:02:14.861Z,15
2016-04-09T09:03:14.848Z,15
2016-04-09T09:04:15.272Z,15
2016-04-09T09:05:14.900Z,15
2016-04-09T09:06:14.935Z,15
2016-04-09T09:07:14.952Z,15
2016-04-09T09:08:14.972Z,15
2016-04-09T09:09:14.990Z,15
2016-04-09T09:10:15.024Z,15
2016-04-09T09:11:15.042Z,15
2016-04-09T09:12:15.045Z,15
2016-04-09T09:13:15.485Z,15
2016-04-09T09:14:15.113Z,15
2016-04-09T09:15:15.132Z,15
2016-04-09T09:16:15.149Z,15
2016-04-09T09:17:15.168Z,15
2016-04-09T09:18:15.201Z,15
2016-04-09T09:19:15.095Z,15
2016-04-09T09:20:15.254Z,15
2016-04-09T09:21:15.256Z,15
2016-04-09T09:22:15.290Z,15
2016-04-09T09:23:15.309Z,15
2016-04-09T09:24:15.343Z,15
2016-04-09T09:25:15.361Z,15
2016-04-09T09:26:15.379Z,15
2016-04-09T09:27:15.414Z,15
2016-04-09T09:28:15.431Z,15
2016-04-09T09:29:15.465Z,15
2016-04-09T09:30:15.468Z,15
2016-04-09T09:31:15.550Z,15
2016-04-09T09:32:15.520Z,15
2016-04-09T09:33:15.539Z,15
2016-04-09T09:34:15.589Z,20
2016-04-09T09:35:15.591Z,20
2016-04-09T09:36:15.625Z,20
2016-04-09T09:37:15.659Z,20
2016-04-09T09:38:15.677Z,20
2016-04-09T09:39:15.711Z,20
2016-04-09T09:40:15.714Z,20
2016-04-09T09:41:15.763Z,20
2016-04-09T09:42:15.766Z,20
2016-04-09T09:43:15.785Z,20
2016-04-09T09:44:15.818Z,20
2016-04-09T09:45:15.821Z,20
2016-04-09T09:46:15.855Z,20
2016-04-09T09:47:15.889Z,20
2016-04-09T09:48:15.907Z,20
2016-04-09T09:49:15.961Z,20
2016-04-09T09:50:16.296Z,20
2016-04-09T09:51:15.654Z,20
2016-04-09T09:52:16.009Z,20
2016-04-09T09:53:16.171Z,20
2016-04-09T09:54:16.143Z,20
2016-04-09T09:55:16.052Z,20
2016-04-09T09:56:16.118Z,20
2016-04-09T09:57:16.105Z,20
2016-04-09T09:58:16.154Z,20
2016-04-09T09:59:16.157Z,20
2016-04-09T10:00:16.190Z,20
2016-04-09T10:01:16.210Z,20
2016-04-09T10:02:16.244Z,25
2016-04-09T10:03:16.247Z,25
2016-04-09T10:04:16.281Z,25
2016-04-09T10:05:16.299Z,25
2016-04-09T10:06:16.317Z,25
2016-04-09T10:07:16.366Z,25
2016-04-09T10:08:16.386Z,25
2016-04-09T10:09:16.403Z,25
2016-04-09T10:10:16.438Z,25
2016-04-09T10:11:16.456Z,20
2016-04-09T10:12:15.740Z,15
2016-04-09T10:13:16.507Z,15
2016-04-09T10:14:16.541Z,15
2016-04-09T10:15:16.545Z,20
2016-04-09T10:16:16.594Z,25
2016-04-09T10:17:16.612Z,25
2016-04-09T10:18:16.897Z,25
2016-04-09T10:19:16.665Z,25
2016-04-09T10:20:16.683Z,25
2016-04-09T10:21:16.702Z,25
2016-04-09T10:22:16.735Z,25
2016-04-09T10:23:16.754Z,30
2016-04-09T10:24:16.818Z,30
2016-04-09T10:25:16.806Z,20
2016-04-09T10:26:16.840Z,20
2016-04-09T10:27:16.859Z,20
2016-04-09T10:28:16.893Z,15
2016-04-09T10:29:16.911Z,15
2016-04-09T10:30:16.928Z,20
2016-04-09T10:31:16.853Z,20
2016-04-09T10:32:16.981Z,30
2016-04-09T10:33:17.000Z,40
2016-04-09T10:34:17.049Z,40
2016-04-09T10:35:17.067Z,40
2016-04-09T10:36:17.086Z,40
2016-04-09T10:37:17.104Z,40
2016-04-09T10:38:17.154Z,40
2016-04-09T10:39:17.156Z,40
2016-04-09T10:40:17.205Z,35
2016-04-09T10:41:17.225Z,40
2016-04-09T10:42:17.242Z,30
2016-04-09T10:43:17.277Z,25
2016-04-09T10:44:17.295Z,30
2016-04-09T10:45:17.313Z,30
2016-04-09T10:46:17.347Z,25
2016-04-09T10:47:17.365Z,30
2016-04-09T10:48:17.415Z,30
2016-04-09T10:49:18.121Z,30
2016-04-09T10:50:17.468Z,25
2016-04-09T10:51:17.471Z,25
2016-04-09T10:52:17.504Z,25
2016-04-09T10:53:17.521Z,25
2016-04-09T10:54:17.540Z,25
2016-04-09T10:55:17.590Z,30
2016-04-09T10:56:17.609Z,35
2016-04-09T10:57:17.643Z,35
2016-04-09T10:58:17.598Z,40
2016-04-09T10:59:17.881Z,40
2016-04-09T11:00:17.540Z,40
2016-04-09T11:01:17.590Z,35
2016-04-09T11:02:17.953Z,30
2016-04-09T11:03:17.784Z,30
2016-04-09T11:04:18.099Z,30
2016-04-09T11:05:17.836Z,25
2016-04-09T11:06:18.056Z,25
2016-04-09T11:07:17.888Z,25
2016-04-09T11:08:17.922Z,25
2016-04-09T11:09:17.956Z,25
2016-04-09T11:10:17.974Z,25
2016-04-09T11:11:17.993Z,25
2016-04-09T11:12:18.026Z,30
2016-04-09T11:13:18.044Z,30
2016-04-09T11:14:18.297Z,35
2016-04-09T11:15:18.097Z,40
2016-04-09T11:16:18.131Z,40
2016-04-09T11:17:18.165Z,45
2016-04-09T11:18:18.183Z,45
2016-04-09T11:19:18.310Z,50
2016-04-09T11:20:18.251Z,50
2016-04-09T11:21:18.269Z,45
2016-04-09T11:22:18.288Z,45
2016-04-09T11:23:18.321Z,45
2016-04-09T11:24:18.324Z,45
2016-04-09T11:25:18.374Z,45
2016-04-09T11:26:18.393Z,45
2016-04-09T11:27:18.426Z,45
2016-04-09T11:28:18.445Z,40
2016-04-09T11:29:18.463Z,35
2016-04-09T11:30:18.496Z,30
2016-04-09T11:31:18.531Z,35
2016-04-09T11:32:18.581Z,35
2016-04-09T11:33:18.583Z,35
2016-04-09T11:34:18.617Z,40
2016-04-09T11:35:18.634Z,35
2016-04-09T11:36:18.654Z,35
2016-04-09T11:37:18.672Z,30
2016-04-09T11:38:18.705Z,25
2016-04-09T11:39:18.739Z,30
2016-04-09T11:40:18.758Z,30
2016-04-09T11:41:18.791Z,30
2016-04-09T11:42:18.841Z,30
2016-04-09T11:43:18.860Z,30
2016-04-09T11:44:18.894Z,35
2016-04-09T11:45:18.896Z,35
2016-04-09T11:46:18.914Z,30
2016-04-09T11:47:18.949Z,25
2016-04-09T11:48:18.982Z,30
2016-04-09T11:49:19.016Z,30
2016-04-09T11:50:19.019Z,30
2016-04-09T11:51:19.068Z,25
2016-04-09T11:52:19.087Z,25
2016-04-09T11:53:19.121Z,30
2016-04-09T11:54:19.139Z,35
2016-04-09T11:55:18.423Z,35
2016-04-09T11:56:19.207Z,40
2016-04-09T11:57:19.225Z,40
2016-04-09T11:58:19.259Z,40
2016-04-09T11:59:19.278Z,45
2016-04-09T12:00:19.296Z,45
2016-04-09T12:01:19.345Z,45
2016-04-09T12:02:19.364Z,45
2016-04-09T12:03:19.382Z,45
2016-04-09T12:04:19.416Z,40
2016-04-09T12:05:19.465Z,40
2016-04-09T12:06:19.453Z,40
2016-04-09T12:07:19.470Z,40
2016-04-09T12:08:19.505Z,40
2016-04-09T12:09:19.539Z,40
2016-04-09T12:10:19.775Z,40
2016-04-09T12:11:19.606Z,45
2016-04-09T12:12:19.625Z,45
2016-04-09T12:13:19.518Z,50
2016-04-09T12:14:19.677Z,50
2016-04-09T12:15:19.696Z,50
2016-04-09T12:16:19.730Z,50
2016-04-09T12:17:19.763Z,50
2016-04-09T12:18:19.782Z,50
2016-04-09T12:19:19.832Z,50
2016-04-09T12:20:19.834Z,50
2016-04-09T12:21:19.868Z,50
2016-04-09T12:22:19.886Z,50
2016-04-09T12:23:19.920Z,50
2016-04-09T12:24:19.938Z,55
2016-04-09T12:25:19.988Z,55
2016-04-09T12:26:20.006Z,50
2016-04-09T12:27:20.040Z,50
2016-04-09T12:28:20.090Z,45
2016-04-09T12:29:20.077Z,45
2016-04-09T12:30:20.111Z,50
2016-04-09T12:31:20.129Z,50
2016-04-09T12:32:20.163Z,50
2016-04-09T12:33:20.182Z,50
2016-04-09T12:34:20.232Z,50
2016-04-09T12:35:20.250Z,50
2016-04-09T12:36:20.268Z,50
2016-04-09T12:37:20.301Z,50
2016-04-09T12:38:20.320Z,45
2016-04-09T12:39:20.354Z,45
2016-04-09T12:40:20.389Z,40
2016-04-09T12:41:20.469Z,35
2016-04-09T12:42:20.439Z,35
2016-04-09T12:43:20.458Z,35
2016-04-09T12:44:20.477Z,35
2016-04-09T12:45:20.511Z,35
2016-04-09T12:46:20.545Z,30
2016-04-09T12:47:20.579Z,30
2016-04-09T12:48:20.613Z,30
2016-04-09T12:49:20.630Z,25
2016-04-09T12:50:20.649Z,25
2016-04-09T12:51:20.668Z,25
2016-04-09T12:52:20.717Z,25
2016-04-09T12:53:20.736Z,25
2016-04-09T12:54:20.770Z,25
2016-04-09T12:55:20.788Z,25
2016-04-09T12:56:20.087Z,25
2016-04-09T12:57:20.840Z,30
2016-04-09T12:58:20.858Z,30
2016-04-09T12:59:20.893Z,30
2016-04-09T13:00:20.926Z,35
2016-04-09T13:01:20.945Z,40
2016-04-09T13:02:20.994Z,45
2016-04-09T13:03:21.028Z,45
2016-04-09T13:04:21.046Z,45
2016-04-09T13:05:21.252Z,40
2016-04-09T13:06:21.099Z,45
2016-04-09T13:07:21.117Z,45
2016-04-09T13:08:20.979Z,50
2016-04-09T13:09:21.169Z,50
2016-04-09T13:10:21.203Z,55
2016-04-09T13:11:21.222Z,50
2016-04-09T13:12:21.240Z,50
2016-04-09T13:13:21.274Z,50
2016-04-09T13:14:21.292Z,50
2016-04-09T13:15:21.326Z,45
2016-04-09T13:16:21.360Z,50
2016-04-09T13:17:21.378Z,50
2016-04-09T13:18:21.411Z,45
2016-04-09T13:19:21.446Z,45
2016-04-09T13:20:21.667Z,45
2016-04-09T13:21:21.499Z,45
2016-04-09T13:22:21.517Z,45
2016-04-09T13:23:21.394Z,40
2016-04-09T13:24:21.569Z,40
2016-04-09T13:25:21.603Z,40
2016-04-09T13:26:21.621Z,40
2016-04-09T13:27:21.671Z,45
2016-04-09T13:28:21.673Z,45
2016-04-09T13:29:21.708Z,45
2016-04-09T13:30:21.741Z,50
2016-04-09T13:31:21.776Z,55
2016-04-09T13:32:21.793Z,55
2016-04-09T13:33:21.827Z,60
2016-04-09T13:34:21.846Z,65
2016-04-09T13:35:21.880Z,65
2016-04-09T13:36:21.915Z,65
2016-04-09T13:37:21.916Z,65
2016-04-09T13:38:21.965Z,65
2016-04-09T13:39:21.984Z,65
2016-04-09T13:40:22.018Z,65
2016-04-09T13:41:22.020Z,65
2016-04-09T13:42:22.055Z,60
2016-04-09T13:43:22.104Z,60
2016-04-09T13:44:22.122Z,60
2016-04-09T13:45:22.157Z,55
2016-04-09T13:46:22.175Z,55
2016-04-09T13:47:22.194Z,60
2016-04-09T13:48:22.243Z,60
2016-04-09T13:49:22.261Z,60
2016-04-09T13:50:22.280Z,60
2016-04-09T13:51:22.329Z,60
2016-04-09T13:52:22.363Z,55
2016-04-09T13:53:22.366Z,50
2016-04-09T13:54:22.400Z,50
2016-04-09T13:55:22.433Z,45
2016-04-09T13:56:22.452Z,45
2016-04-09T13:57:22.485Z,45
2016-04-09T13:58:22.504Z,40
2016-04-09T13:59:22.991Z,35
2016-04-09T14:00:22.556Z,35
2016-04-09T14:01:22.591Z,35
2016-04-09T14:02:22.624Z,35
2016-04-09T14:03:22.643Z,35
2016-04-09T14:04:22.677Z,40
2016-04-09T14:05:22.913Z,40
2016-04-09T14:06:22.729Z,40
2016-04-09T14:07:22.762Z,35
2016-04-09T14:08:22.781Z,30
2016-04-09T14:09:22.815Z,30
2016-04-09T14:10:22.833Z,35
2016-04-09T14:11:22.867Z,35
2016-04-09T14:12:22.885Z,40
2016-04-09T14:13:22.747Z,35
2016-04-09T14:14:22.953Z,35
2016-04-09T14:15:22.972Z,30
2016-04-09T14:16:23.006Z,30
2016-04-09T14:17:22.883Z,35
2016-04-09T14:18:23.058Z,35
2016-04-09T14:19:23.091Z,35
2016-04-09T14:20:23.157Z,35
2016-04-09T14:21:23.144Z,35
2016-04-09T14:22:23.163Z,35
2016-04-09T14:23:23.211Z,35
2016-04-09T14:24:23.247Z,40
2016-04-09T14:25:23.280Z,40
2016-04-09T14:26:23.299Z,40
2016-04-09T14:27:23.347Z,40
2016-04-09T14:28:23.397Z,45
2016-04-09T14:29:23.385Z,45
2016-04-09T14:30:23.388Z,50
2016-04-09T14:31:23.421Z,45